Zebulon, Georgia
Current Conditions -  °F | °C
As of 10:55 AM on Friday 31 Oct 2014 (Local Time) from K6A2 Reporting Station
Clear Clear  
Wind Chill: 54°   Ceiling: Unl
Heat Index: 54°   Visibility: 10mi
Dew Point: 43°   Wind: 5mph
Humidity: 67%   Direction: 320°NW
Pressure: 29.95"   Gusts: NA
Location:  33.1°N, 84.34°W
Report Text: K6A2 311455Z AUTO 32004KT 10SM CLR 12/06 A2995 RMK AO2
Loading
Personal Weather Stations






























Interactive Weather Map New forecast layout! Learn more

10-Day Weather Forecast

Advertisements
Track Severe Weather on mobile